Time;durP1;ratioP1;P1;durP2;ratioP2;P2;SDS_P1;SDS_P2;PMS_P1;PMS_P2;Temp;Humidity;BMP_temperature;BMP_pressure;BME280_temperature;BME280_humidity;BME280_pressure;Samples;Min_cycle;Max_cycle;Signal;HPM_P1;HPM_P2
2023/05/09 00:01:13;;;;;;;;;;;14.90;99.90;;;;;;5061755;28;19951;-79
2023/05/09 00:03:39;;;;;;;;;;;14.90;99.90;;;;;;5078184;28;19929;-79
2023/05/09 00:06:05;;;;;;;;;;;14.90;99.90;;;;;;5088980;28;19931;-80
2023/05/09 00:08:31;;;;;;;;;;;15.00;99.90;;;;;;5068650;28;19959;-79
2023/05/09 00:10:57;;;;;;;;;;;14.90;99.90;;;;;;5070429;28;19947;-79
2023/05/09 00:13:23;;;;;;;;;;;14.90;99.90;;;;;;5050592;28;19971;-79
2023/05/09 00:15:49;;;;;;;;;;;14.90;99.90;;;;;;5085226;28;19940;-79
2023/05/09 00:18:16;;;;;;;;;;;14.90;99.90;;;;;;5059913;28;19925;-79
2023/05/09 00:20:43;;;;;;;;;;;14.90;99.90;;;;;;5071525;28;20500;-79
2023/05/09 00:23:08;;;;;;;;;;;14.90;99.90;;;;;;5074680;28;19987;-79
2023/05/09 00:25:34;;;;;;;;;;;14.90;99.90;;;;;;5074521;28;19967;-79
2023/05/09 00:28:00;;;;;;;;;;;14.90;99.90;;;;;;5044674;28;19932;-79
2023/05/09 00:30:25;;;;;;;;;;;14.80;99.90;;;;;;5064585;28;21416;-79
2023/05/09 00:32:51;;;;;;;;;;;14.80;99.90;;;;;;5052649;28;19990;-79
2023/05/09 00:35:16;;;;;;;;;;;14.80;99.90;;;;;;5075600;28;19984;-78
2023/05/09 00:37:42;;;;;;;;;;;14.80;99.90;;;;;;5071548;28;19925;-79
2023/05/09 00:40:08;;;;;;;;;;;14.80;99.90;;;;;;5065470;28;19924;-79
2023/05/09 00:42:34;;;;;;;;;;;14.80;99.90;;;;;;5084957;28;19931;-79
2023/05/09 00:45:00;;;;;;;;;;;14.80;99.90;;;;;;5071512;28;19932;-79
2023/05/09 00:47:26;;;;;;;;;;;14.80;99.90;;;;;;5088387;28;20066;-79
2023/05/09 00:49:52;;;;;;;;;;;14.70;99.90;;;;;;5059916;28;19924;-79
2023/05/09 00:52:22;;;;;;;;;;;14.70;99.90;;;;;;5087724;28;19931;-79
2023/05/09 00:54:48;;;;;;;;;;;14.60;99.90;;;;;;5071740;28;19979;-79
2023/05/09 00:57:14;;;;;;;;;;;14.60;99.90;;;;;;5088435;28;19924;-79
2023/05/09 00:59:40;;;;;;;;;;;14.60;99.90;;;;;;5086683;28;19928;-79
2023/05/09 01:02:05;;;;;;;;;;;14.60;99.90;;;;;;5087529;28;19959;-79
2023/05/09 01:04:31;;;;;;;;;;;14.50;99.90;;;;;;5067651;28;19932;-79
2023/05/09 01:07:02;;;;;;;;;;;14.60;99.90;;;;;;5067731;28;19928;-79
2023/05/09 01:09:28;;;;;;;;;;;14.50;99.90;;;;;;5061378;28;19928;-79
2023/05/09 01:12:09;;;;;;;;;;;14.50;99.90;;;;;;5059813;28;19935;-79
2023/05/09 01:14:34;;;;;;;;;;;14.40;99.90;;;;;;5078065;28;19928;-79
2023/05/09 01:17:11;;;;;;;;;;;14.40;99.90;;;;;;5093196;28;19931;-79
2023/05/09 01:19:55;;;;;;;;;;;14.40;99.90;;;;;;5060298;28;20446;-79
2023/05/09 01:22:25;;;;;;;;;;;14.40;99.90;;;;;;5093286;28;20356;-79
2023/05/09 01:25:04;;;;;;;;;;;14.30;99.90;;;;;;5092742;28;19925;-79
2023/05/09 01:27:32;;;;;;;;;;;14.30;99.90;;;;;;5064539;28;19924;-79
2023/05/09 01:30:01;;;;;;;;;;;14.30;99.90;;;;;;5076718;28;20291;-79
2023/05/09 01:32:27;;;;;;;;;;;14.30;99.90;;;;;;5087951;28;20019;-79
2023/05/09 01:34:54;;;;;;;;;;;14.20;99.90;;;;;;5086069;28;19924;-79
2023/05/09 01:37:29;;;;;;;;;;;14.20;99.90;;;;;;5092304;28;19932;-79
2023/05/09 01:39:56;;;;;;;;;;;14.20;99.90;;;;;;5093652;28;19924;-79
2023/05/09 01:42:24;;;;;;;;;;;14.20;99.90;;;;;;5059234;28;20007;-79
2023/05/09 01:44:50;;;;;;;;;;;14.20;99.90;;;;;;5076334;28;19990;-79
2023/05/09 01:47:17;;;;;;;;;;;14.20;99.90;;;;;;5075647;28;19928;-79
2023/05/09 01:49:43;;;;;;;;;;;14.20;99.90;;;;;;5065506;28;20371;-79
2023/05/09 01:52:10;;;;;;;;;;;14.20;99.90;;;;;;5074041;28;20369;-79
2023/05/09 01:54:38;;;;;;;;;;;14.10;99.90;;;;;;5049183;28;20022;-79
2023/05/09 01:57:05;;;;;;;;;;;14.10;99.90;;;;;;5047923;28;19924;-79
2023/05/09 01:59:32;;;;;;;;;;;14.10;99.90;;;;;;5052804;28;19924;-79
2023/05/09 02:01:58;;;;;;;;;;;14.10;99.90;;;;;;5052881;28;19928;-79
2023/05/09 02:04:24;;;;;;;;;;;14.10;99.90;;;;;;5072831;28;20330;-79
2023/05/09 02:06:50;;;;;;;;;;;14.00;99.90;;;;;;5086835;28;19934;-79
2023/05/09 02:09:19;;;;;;;;;;;14.00;99.90;;;;;;5069649;28;20423;-79
2023/05/09 02:11:45;;;;;;;;;;;14.00;99.90;;;;;;5068384;28;20480;-79
2023/05/09 02:14:11;;;;;;;;;;;14.00;99.90;;;;;;5085524;28;20134;-79
2023/05/09 02:16:38;;;;;;;;;;;14.00;99.90;;;;;;5036674;28;19936;-79
2023/05/09 02:19:04;;;;;;;;;;;14.00;99.90;;;;;;5059503;28;19946;-79
2023/05/09 02:21:30;;;;;;;;;;;14.00;99.90;;;;;;5088130;28;19928;-79
2023/05/09 02:23:56;;;;;;;;;;;14.00;99.90;;;;;;5084773;28;19928;-79
2023/05/09 02:26:22;;;;;;;;;;;14.00;99.90;;;;;;5077454;28;19924;-79
2023/05/09 02:28:48;;;;;;;;;;;14.00;99.90;;;;;;5068497;28;20355;-79
2023/05/09 02:31:16;;;;;;;;;;;14.10;99.90;;;;;;5087303;28;19924;-79
2023/05/09 02:33:42;;;;;;;;;;;14.10;99.90;;;;;;5052047;28;19928;-80
2023/05/09 02:36:08;;;;;;;;;;;14.10;99.90;;;;;;5088300;28;19924;-79
2023/05/09 02:38:34;;;;;;;;;;;14.10;99.90;;;;;;5072696;28;19933;-79
2023/05/09 02:41:00;;;;;;;;;;;14.10;99.90;;;;;;5087447;28;20268;-79
2023/05/09 02:43:26;;;;;;;;;;;14.10;99.90;;;;;;5074650;28;19999;-79
2023/05/09 02:45:51;;;;;;;;;;;14.10;99.90;;;;;;5088106;28;19935;-79
2023/05/09 02:48:17;;;;;;;;;;;14.00;99.90;;;;;;5040365;28;19963;-79
2023/05/09 02:50:43;;;;;;;;;;;14.10;99.90;;;;;;5069155;28;19928;-79
2023/05/09 02:53:08;;;;;;;;;;;14.00;99.90;;;;;;5089154;28;19931;-79
2023/05/09 02:55:34;;;;;;;;;;;14.10;99.90;;;;;;5083904;28;20403;-79
2023/05/09 02:58:00;;;;;;;;;;;14.10;99.90;;;;;;5087437;28;19928;-79
2023/05/09 03:00:25;;;;;;;;;;;14.10;99.90;;;;;;5083482;28;20086;-79
2023/05/09 03:02:51;;;;;;;;;;;14.10;99.90;;;;;;5059779;28;19938;-79
2023/05/09 03:05:17;;;;;;;;;;;14.20;99.90;;;;;;5072574;28;19946;-79
2023/05/09 03:07:43;;;;;;;;;;;14.20;99.90;;;;;;5088520;28;19924;-80
2023/05/09 03:10:12;;;;;;;;;;;14.20;99.90;;;;;;5089381;28;19932;-80
2023/05/09 03:12:38;;;;;;;;;;;14.20;99.90;;;;;;5086357;28;19924;-80
2023/05/09 03:15:05;;;;;;;;;;;14.10;99.90;;;;;;5072751;28;19929;-80
2023/05/09 03:17:30;;;;;;;;;;;14.10;99.90;;;;;;5092310;28;19925;-80
2023/05/09 03:19:56;;;;;;;;;;;14.10;99.90;;;;;;5057040;28;19929;-80
2023/05/09 03:22:22;;;;;;;;;;;14.10;99.90;;;;;;5058890;28;19950;-80
2023/05/09 03:24:47;;;;;;;;;;;14.10;99.90;;;;;;5088231;28;19946;-80
2023/05/09 03:27:13;;;;;;;;;;;14.10;99.90;;;;;;5072853;28;19928;-79
2023/05/09 03:29:38;;;;;;;;;;;14.10;99.90;;;;;;5090361;28;19935;-79
2023/05/09 03:32:04;;;;;;;;;;;14.10;99.90;;;;;;5073131;28;19932;-79
2023/05/09 03:34:30;;;;;;;;;;;14.20;99.90;;;;;;5063723;28;19929;-79
2023/05/09 03:36:55;;;;;;;;;;;14.20;99.90;;;;;;5073307;28;19947;-79
2023/05/09 03:39:21;;;;;;;;;;;14.20;99.90;;;;;;5072652;28;19984;-79
2023/05/09 03:41:47;;;;;;;;;;;14.20;99.90;;;;;;5085305;28;20000;-79
2023/05/09 03:44:13;;;;;;;;;;;14.30;99.90;;;;;;5090745;28;19932;-79
2023/05/09 03:46:39;;;;;;;;;;;14.30;99.90;;;;;;5090555;28;19935;-79
2023/05/09 03:49:04;;;;;;;;;;;14.30;99.90;;;;;;5072089;28;19928;-79
2023/05/09 03:51:31;;;;;;;;;;;14.40;99.90;;;;;;5071529;28;19924;-80
2023/05/09 03:53:56;;;;;;;;;;;14.40;99.90;;;;;;5088759;28;19932;-80
2023/05/09 03:56:22;;;;;;;;;;;14.50;99.90;;;;;;5088893;28;19973;-80
2023/05/09 03:58:48;;;;;;;;;;;14.50;99.90;;;;;;5068982;28;19931;-80
2023/05/09 04:01:13;;;;;;;;;;;14.50;99.90;;;;;;5088046;28;19970;-79
2023/05/09 04:03:40;;;;;;;;;;;14.50;99.90;;;;;;5066865;28;19928;-80
2023/05/09 04:06:05;;;;;;;;;;;14.50;99.90;;;;;;5086719;28;19924;-79
2023/05/09 04:08:31;;;;;;;;;;;14.50;99.90;;;;;;5074822;28;20006;-80
2023/05/09 04:10:57;;;;;;;;;;;14.50;99.90;;;;;;5059223;28;19924;-80
2023/05/09 04:13:23;;;;;;;;;;;14.50;99.90;;;;;;5062352;28;20314;-80
2023/05/09 04:15:48;;;;;;;;;;;14.50;99.90;;;;;;5061377;28;19929;-80
2023/05/09 04:18:14;;;;;;;;;;;14.50;99.90;;;;;;5095892;28;20020;-80
2023/05/09 04:20:40;;;;;;;;;;;14.60;99.90;;;;;;5077878;28;19992;-80
2023/05/09 04:23:05;;;;;;;;;;;14.50;99.90;;;;;;5060597;28;19929;-79
2023/05/09 04:25:31;;;;;;;;;;;14.60;99.90;;;;;;5077476;28;19999;-80
2023/05/09 04:27:56;;;;;;;;;;;14.60;99.90;;;;;;5082403;28;20363;-80
2023/05/09 04:30:25;;;;;;;;;;;14.60;99.90;;;;;;5076483;28;19928;-80
2023/05/09 04:32:52;;;;;;;;;;;14.60;99.90;;;;;;5077743;28;20399;-80
2023/05/09 04:35:17;;;;;;;;;;;14.60;99.90;;;;;;5061806;28;19925;-80
2023/05/09 04:37:43;;;;;;;;;;;14.60;99.90;;;;;;5094450;28;19924;-79
2023/05/09 04:40:09;;;;;;;;;;;14.70;99.90;;;;;;5078665;28;19928;-79
2023/05/09 04:42:35;;;;;;;;;;;14.70;99.90;;;;;;5060709;28;21634;-79
2023/05/09 04:45:00;;;;;;;;;;;14.70;99.90;;;;;;5087822;28;19932;-80
2023/05/09 04:47:26;;;;;;;;;;;14.80;99.90;;;;;;5085774;28;19924;-80
2023/05/09 04:49:51;;;;;;;;;;;14.80;99.90;;;;;;5078975;28;20394;-80
2023/05/09 04:52:17;;;;;;;;;;;14.80;99.90;;;;;;5072717;28;19931;-79
2023/05/09 04:54:43;;;;;;;;;;;14.80;99.90;;;;;;5074135;28;20370;-80
2023/05/09 04:57:08;;;;;;;;;;;14.80;99.90;;;;;;5090652;28;19962;-79
2023/05/09 04:59:34;;;;;;;;;;;14.80;99.90;;;;;;5057575;28;19946;-79
2023/05/09 05:02:00;;;;;;;;;;;14.90;99.90;;;;;;5089057;28;19932;-80
2023/05/09 05:04:26;;;;;;;;;;;14.90;99.90;;;;;;5087411;28;19925;-80
2023/05/09 05:06:52;;;;;;;;;;;14.90;99.90;;;;;;5061025;28;19999;-80
2023/05/09 05:09:18;;;;;;;;;;;14.90;99.90;;;;;;5036913;28;19971;-80
2023/05/09 05:11:43;;;;;;;;;;;14.90;99.90;;;;;;5071812;28;19932;-80
2023/05/09 05:14:09;;;;;;;;;;;14.90;99.90;;;;;;5076295;28;19928;-80
2023/05/09 05:16:34;;;;;;;;;;;14.90;99.90;;;;;;5075502;28;19980;-80
2023/05/09 05:19:00;;;;;;;;;;;15.00;99.90;;;;;;5078373;28;19945;-80
2023/05/09 05:21:26;;;;;;;;;;;15.00;99.90;;;;;;5076768;28;19931;-80
2023/05/09 05:23:51;;;;;;;;;;;14.90;99.90;;;;;;5077325;28;19924;-80
2023/05/09 05:26:17;;;;;;;;;;;15.00;99.90;;;;;;5093128;28;19937;-80
2023/05/09 05:28:42;;;;;;;;;;;15.00;99.90;;;;;;5076834;28;19956;-80
2023/05/09 05:31:08;;;;;;;;;;;15.10;99.90;;;;;;5077674;28;19924;-80
2023/05/09 05:33:33;;;;;;;;;;;15.10;99.90;;;;;;5076636;28;19928;-80
2023/05/09 05:35:59;;;;;;;;;;;15.10;99.90;;;;;;5061041;28;20002;-80
2023/05/09 05:38:25;;;;;;;;;;;15.10;99.90;;;;;;5075148;28;19947;-80
2023/05/09 05:40:50;;;;;;;;;;;15.20;99.90;;;;;;5092528;28;19986;-80
2023/05/09 05:43:16;;;;;;;;;;;15.20;99.90;;;;;;5077198;28;20382;-80
2023/05/09 05:45:41;;;;;;;;;;;15.20;99.90;;;;;;5076821;28;19939;-80
2023/05/09 05:48:07;;;;;;;;;;;15.30;99.90;;;;;;5075538;28;19924;-80
2023/05/09 05:50:33;;;;;;;;;;;15.30;99.90;;;;;;5070764;28;19959;-80
2023/05/09 05:52:58;;;;;;;;;;;15.30;99.90;;;;;;5071909;28;20489;-80
2023/05/09 05:55:24;;;;;;;;;;;15.40;99.90;;;;;;5089085;28;19967;-80
2023/05/09 05:57:50;;;;;;;;;;;15.40;99.90;;;;;;5086815;28;19928;-80
2023/05/09 06:00:16;;;;;;;;;;;15.40;99.90;;;;;;5087373;28;19974;-80
2023/05/09 06:02:46;;;;;;;;;;;15.40;99.90;;;;;;5104087;28;19928;-80
2023/05/09 06:05:12;;;;;;;;;;;15.40;99.90;;;;;;5089607;28;19956;-80
2023/05/09 06:07:39;;;;;;;;;;;15.40;99.90;;;;;;5086121;28;21328;-80
2023/05/09 06:10:06;;;;;;;;;;;15.40;99.90;;;;;;5042387;28;19954;-80
2023/05/09 06:12:31;;;;;;;;;;;15.50;99.90;;;;;;5069542;28;19924;-80
2023/05/09 06:14:57;;;;;;;;;;;15.50;99.90;;;;;;5071702;28;20033;-80
2023/05/09 06:17:23;;;;;;;;;;;15.60;99.90;;;;;;5036460;28;19932;-80
2023/05/09 06:19:48;;;;;;;;;;;15.60;99.90;;;;;;5065664;28;19964;-80
2023/05/09 06:22:14;;;;;;;;;;;15.60;99.90;;;;;;5071405;28;19967;-80
2023/05/09 06:24:39;;;;;;;;;;;15.60;99.90;;;;;;5086780;28;20299;-80
2023/05/09 06:27:05;;;;;;;;;;;15.60;99.90;;;;;;5073274;28;20375;-80
2023/05/09 06:29:31;;;;;;;;;;;15.70;99.90;;;;;;5069343;28;19935;-80
2023/05/09 06:31:56;;;;;;;;;;;15.70;99.90;;;;;;5069155;28;19928;-81
2023/05/09 06:34:22;;;;;;;;;;;15.70;99.90;;;;;;5072510;28;19925;-80
2023/05/09 06:36:47;;;;;;;;;;;15.70;99.90;;;;;;5083686;28;20006;-81
2023/05/09 06:39:13;;;;;;;;;;;15.70;99.90;;;;;;5072131;28;20023;-81
2023/05/09 06:41:39;;;;;;;;;;;15.70;99.90;;;;;;5059813;28;20435;-81
2023/05/09 06:44:05;;;;;;;;;;;15.70;99.90;;;;;;5052796;28;20463;-81
2023/05/09 06:46:30;;;;;;;;;;;15.70;99.90;;;;;;5056130;28;19931;-81
2023/05/09 06:48:56;;;;;;;;;;;15.70;99.90;;;;;;5073345;28;19931;-81
2023/05/09 06:51:21;;;;;;;;;;;15.70;99.90;;;;;;5061215;28;19933;-80
2023/05/09 06:53:47;;;;;;;;;;;15.70;99.90;;;;;;5058196;28;19933;-81
2023/05/09 06:56:13;;;;;;;;;;;15.70;99.90;;;;;;5065541;28;19925;-81
2023/05/09 06:58:38;;;;;;;;;;;15.80;99.90;;;;;;5085433;28;19932;-81
2023/05/09 07:01:04;;;;;;;;;;;15.90;99.90;;;;;;5068556;28;19924;-81
2023/05/09 07:03:30;;;;;;;;;;;16.00;99.90;;;;;;5052097;28;20000;-82
2023/05/09 07:05:57;;;;;;;;;;;16.30;99.90;;;;;;5085688;28;19928;-81
2023/05/09 07:08:23;;;;;;;;;;;16.50;99.90;;;;;;5072144;28;19946;-82
2023/05/09 07:10:49;;;;;;;;;;;16.60;99.90;;;;;;5088316;28;19988;-82
2023/05/09 07:13:14;;;;;;;;;;;16.70;99.90;;;;;;5084010;28;19928;-82
2023/05/09 07:15:40;;;;;;;;;;;16.90;99.90;;;;;;5084161;28;19932;-82
2023/05/09 07:18:06;;;;;;;;;;;16.90;99.90;;;;;;5050012;28;19929;-82
2023/05/09 07:20:31;;;;;;;;;;;16.90;99.90;;;;;;5067573;28;19986;-82
2023/05/09 07:22:57;;;;;;;;;;;16.90;99.90;;;;;;5070580;28;19964;-82
2023/05/09 07:25:23;;;;;;;;;;;16.90;99.90;;;;;;5068561;28;19940;-82
2023/05/09 07:27:48;;;;;;;;;;;16.90;99.90;;;;;;5072629;28;19932;-82
2023/05/09 07:30:14;;;;;;;;;;;16.80;99.90;;;;;;5085137;28;19952;-82
2023/05/09 07:32:39;;;;;;;;;;;16.80;99.90;;;;;;5071277;28;19928;-82
2023/05/09 07:35:05;;;;;;;;;;;16.70;99.90;;;;;;5083330;28;19924;-82
2023/05/09 07:37:31;;;;;;;;;;;16.60;99.90;;;;;;5071724;28;19924;-81
2023/05/09 07:39:57;;;;;;;;;;;16.60;99.90;;;;;;5086783;28;19951;-82
2023/05/09 07:42:22;;;;;;;;;;;16.50;99.90;;;;;;5065963;28;19933;-81
2023/05/09 07:44:48;;;;;;;;;;;16.50;99.90;;;;;;5088725;28;20385;-81
2023/05/09 07:47:13;;;;;;;;;;;16.50;99.90;;;;;;5070042;28;19931;-81
2023/05/09 07:49:42;;;;;;;;;;;16.50;99.90;;;;;;5072488;28;19928;-81
2023/05/09 07:52:07;;;;;;;;;;;16.60;99.90;;;;;;5062843;28;20007;-81
2023/05/09 07:54:33;;;;;;;;;;;16.60;99.90;;;;;;5078077;28;19928;-82
2023/05/09 07:56:58;;;;;;;;;;;16.70;99.90;;;;;;5090522;28;19931;-81
2023/05/09 07:59:24;;;;;;;;;;;16.80;99.90;;;;;;5086744;28;19947;-81
2023/05/09 08:01:49;;;;;;;;;;;16.90;99.90;;;;;;5062484;28;19963;-81
2023/05/09 08:04:15;;;;;;;;;;;16.90;99.90;;;;;;5061689;28;19928;-81
2023/05/09 08:06:41;;;;;;;;;;;17.00;99.90;;;;;;5075722;28;19932;-82
2023/05/09 08:09:06;;;;;;;;;;;17.00;99.90;;;;;;5096282;28;19924;-82
2023/05/09 08:11:33;;;;;;;;;;;17.10;99.90;;;;;;5061412;28;19928;-81
2023/05/09 08:13:59;;;;;;;;;;;17.10;99.90;;;;;;5062479;28;19951;-81
2023/05/09 08:16:24;;;;;;;;;;;17.10;99.90;;;;;;5077095;28;19924;-81
2023/05/09 08:18:50;;;;;;;;;;;17.10;99.90;;;;;;5096119;28;20003;-81
2023/05/09 08:21:15;;;;;;;;;;;17.10;99.90;;;;;;5077715;28;20004;-80
2023/05/09 08:23:41;;;;;;;;;;;17.30;99.90;;;;;;5078274;28;19929;-81
2023/05/09 08:26:06;;;;;;;;;;;17.30;99.90;;;;;;5077334;28;19932;-81
2023/05/09 08:28:32;;;;;;;;;;;17.40;99.90;;;;;;5077650;28;19971;-81
2023/05/09 08:30:58;;;;;;;;;;;17.40;99.90;;;;;;5078631;28;19928;-81
2023/05/09 08:33:24;;;;;;;;;;;17.50;99.90;;;;;;5093393;28;19932;-81
2023/05/09 08:35:50;;;;;;;;;;;17.60;99.90;;;;;;5075142;28;19944;-81
2023/05/09 08:38:16;;;;;;;;;;;17.60;99.90;;;;;;5087174;28;19924;-81
2023/05/09 08:40:42;;;;;;;;;;;17.70;99.90;;;;;;5044445;28;19931;-81
2023/05/09 08:43:07;;;;;;;;;;;17.70;99.90;;;;;;5063465;28;19928;-81
2023/05/09 08:45:44;;;;;;;;;;;17.80;99.90;;;;;;5075711;28;20002;-81
2023/05/09 08:48:10;;;;;;;;;;;17.90;99.90;;;;;;5053058;28;19932;-81
2023/05/09 08:50:36;;;;;;;;;;;18.00;99.90;;;;;;5090190;28;20015;-81
2023/05/09 08:53:02;;;;;;;;;;;18.00;99.90;;;;;;5087173;28;20413;-81
2023/05/09 08:55:28;;;;;;;;;;;18.10;99.90;;;;;;5067121;28;19931;-81
2023/05/09 08:57:53;;;;;;;;;;;18.00;99.90;;;;;;5085719;28;19924;-81
2023/05/09 09:00:19;;;;;;;;;;;17.90;99.90;;;;;;5071440;28;20011;-81
2023/05/09 09:02:45;;;;;;;;;;;17.90;99.90;;;;;;5061484;28;20295;-81
2023/05/09 09:05:11;;;;;;;;;;;17.80;99.90;;;;;;5060150;28;19931;-81
2023/05/09 09:07:37;;;;;;;;;;;17.90;99.90;;;;;;5072152;28;19933;-82
2023/05/09 09:10:03;;;;;;;;;;;17.90;99.90;;;;;;5071494;28;19936;-83
2023/05/09 09:12:30;;;;;;;;;;;18.00;99.90;;;;;;5055112;28;19973;-82
2023/05/09 09:14:59;;;;;;;;;;;18.20;99.90;;;;;;5037664;28;19928;-83
2023/05/09 09:17:28;;;;;;;;;;;18.40;99.90;;;;;;5086867;28;19929;-82
2023/05/09 09:19:54;;;;;;;;;;;18.50;99.90;;;;;;5088988;28;20326;-82
2023/05/09 09:22:21;;;;;;;;;;;18.70;99.90;;;;;;5077196;28;20464;-83
2023/05/09 09:24:46;;;;;;;;;;;18.80;99.90;;;;;;5066654;28;20402;-83
2023/05/09 09:27:12;;;;;;;;;;;18.80;99.90;;;;;;5071476;28;19928;-80
2023/05/09 09:29:37;;;;;;;;;;;18.90;99.90;;;;;;5072576;28;19925;-82
2023/05/09 09:32:04;;;;;;;;;;;19.00;99.90;;;;;;5077562;28;19996;-82
2023/05/09 09:34:29;;;;;;;;;;;19.00;99.90;;;;;;5056838;28;19935;-82
2023/05/09 09:36:55;;;;;;;;;;;19.10;99.90;;;;;;5076949;28;19924;-82
2023/05/09 09:39:21;;;;;;;;;;;19.20;99.90;;;;;;5059420;28;19935;-82
2023/05/09 09:41:46;;;;;;;;;;;19.30;99.90;;;;;;5076375;28;19928;-83
2023/05/09 09:44:13;;;;;;;;;;;19.40;99.90;;;;;;5094583;28;19928;-82
2023/05/09 09:46:43;;;;;;;;;;;19.50;99.90;;;;;;5089411;28;19932;-82
2023/05/09 09:49:10;;;;;;;;;;;19.50;99.90;;;;;;5055734;28;19932;-82
2023/05/09 09:51:35;;;;;;;;;;;19.50;99.90;;;;;;5051338;28;20459;-82
2023/05/09 09:54:01;;;;;;;;;;;19.60;99.90;;;;;;5051967;28;20000;-83
2023/05/09 09:56:37;;;;;;;;;;;19.60;99.90;;;;;;5083775;28;20456;-82
2023/05/09 09:59:13;;;;;;;;;;;19.60;99.90;;;;;;5053088;28;19928;-82
2023/05/09 10:01:53;;;;;;;;;;;19.70;99.90;;;;;;5076068;28;19932;-82
2023/05/09 10:04:18;;;;;;;;;;;19.70;99.90;;;;;;5054228;28;19929;-82
2023/05/09 10:06:54;;;;;;;;;;;19.70;99.90;;;;;;5093463;28;19971;-82
2023/05/09 10:09:20;;;;;;;;;;;19.70;99.90;;;;;;5063226;28;19932;-82
2023/05/09 10:11:47;;;;;;;;;;;19.80;99.90;;;;;;5087526;28;19928;-83
2023/05/09 10:14:13;;;;;;;;;;;19.80;99.90;;;;;;5088501;28;20030;-83
2023/05/09 10:16:39;;;;;;;;;;;19.80;99.90;;;;;;5086675;28;20338;-83
2023/05/09 10:19:05;;;;;;;;;;;19.70;99.90;;;;;;5069343;28;19931;-82
2023/05/09 10:21:31;;;;;;;;;;;19.70;99.90;;;;;;5072293;28;19933;-82
2023/05/09 10:23:58;;;;;;;;;;;19.60;99.90;;;;;;5087945;28;20003;-83
2023/05/09 10:26:27;;;;;;;;;;;19.70;99.90;;;;;;5059049;28;19925;-82
2023/05/09 10:28:56;;;;;;;;;;;19.80;99.90;;;;;;5053045;28;19929;-80
2023/05/09 10:31:26;;;;;;;;;;;19.90;99.90;;;;;;5093663;28;19932;-82
2023/05/09 10:33:52;;;;;;;;;;;20.10;99.90;;;;;;5059623;28;19991;-82
2023/05/09 10:36:22;;;;;;;;;;;20.30;99.90;;;;;;5070339;28;19924;-82
2023/05/09 10:38:48;;;;;;;;;;;20.50;99.90;;;;;;5090444;28;19928;-82
2023/05/09 10:41:18;;;;;;;;;;;20.50;99.90;;;;;;5060609;28;20448;-82
2023/05/09 10:43:44;;;;;;;;;;;20.60;99.90;;;;;;5056999;28;19968;-82
2023/05/09 10:46:11;;;;;;;;;;;20.50;99.90;;;;;;5060043;28;19933;-82
2023/05/09 10:48:37;;;;;;;;;;;20.50;99.90;;;;;;5093875;28;20070;-82
2023/05/09 10:51:04;;;;;;;;;;;20.50;99.90;;;;;;5072845;28;19939;-82
2023/05/09 10:53:43;;;;;;;;;;;20.50;99.90;;;;;;5060416;28;19932;-83
2023/05/09 10:56:21;;;;;;;;;;;20.40;99.90;;;;;;5060498;28;19932;-81
2023/05/09 10:58:46;;;;;;;;;;;20.40;99.90;;;;;;5095339;28;19928;-83
2023/05/09 11:01:12;;;;;;;;;;;20.20;99.90;;;;;;5094050;28;19924;-83
2023/05/09 11:03:50;;;;;;;;;;;20.10;99.90;;;;;;5093542;28;19928;-83
2023/05/09 11:06:34;;;;;;;;;;;20.10;99.90;;;;;;5091698;28;19924;-84
2023/05/09 11:09:20;;;;;;;;;;;20.20;99.90;;;;;;5092005;28;19947;-84
2023/05/09 11:11:52;;;;;;;;;;;20.20;99.90;;;;;;5073773;28;19935;-84
2023/05/09 11:14:32;;;;;;;;;;;20.20;99.90;;;;;;5093016;28;19924;-84
2023/05/09 11:16:58;;;;;;;;;;;20.30;99.90;;;;;;5056635;28;20447;-84
2023/05/09 11:20:00;;;;;;;;;;;20.40;99.90;;;;;;5093135;28;19934;-84
2023/05/09 11:22:31;;;;;;;;;;;20.50;99.90;;;;;;5011193;28;19953;-84
2023/05/09 11:25:00;;;;;;;;;;;20.60;99.90;;;;;;5048438;28;19924;-85
2023/05/09 11:27:27;;;;;;;;;;;20.70;99.90;;;;;;5096842;28;19935;-84
2023/05/09 11:29:58;;;;;;;;;;;20.80;99.90;;;;;;5094613;28;19924;-84
2023/05/09 11:32:29;;;;;;;;;;;20.70;99.90;;;;;;5093944;28;19999;-84
2023/05/09 11:35:08;;;;;;;;;;;20.70;99.90;;;;;;5052613;28;20055;-84
2023/05/09 11:37:47;;;;;;;;;;;20.70;99.90;;;;;;5089501;28;19924;-85
2023/05/09 11:40:13;;;;;;;;;;;20.80;99.90;;;;;;5062801;28;19925;-85
2023/05/09 11:42:40;;;;;;;;;;;20.90;99.90;;;;;;5093942;28;19930;-85
2023/05/09 11:45:06;;;;;;;;;;;20.90;99.90;;;;;;5084803;28;19932;-85
2023/05/09 11:47:34;;;;;;;;;;;21.00;99.90;;;;;;5079701;28;19929;-84
2023/05/09 11:49:59;;;;;;;;;;;21.00;99.90;;;;;;5077550;28;19928;-84
2023/05/09 11:52:25;;;;;;;;;;;21.10;99.90;;;;;;5090950;28;20067;-85
2023/05/09 11:54:51;;;;;;;;;;;21.10;99.90;;;;;;5068418;28;19936;-84
2023/05/09 11:57:17;;;;;;;;;;;21.10;99.90;;;;;;5093595;28;20426;-84
2023/05/09 11:59:44;;;;;;;;;;;21.10;99.90;;;;;;5058531;28;19955;-85
2023/05/09 12:02:09;;;;;;;;;;;21.00;99.90;;;;;;5062212;28;19933;-85
2023/05/09 12:04:35;;;;;;;;;;;20.80;99.90;;;;;;5077369;28;19938;-85
2023/05/09 12:07:01;;;;;;;;;;;20.80;99.90;;;;;;5078080;28;19931;-85
2023/05/09 12:09:31;;;;;;;;;;;20.80;99.90;;;;;;5061871;28;20443;-84
2023/05/09 12:11:58;;;;;;;;;;;20.70;99.90;;;;;;5077885;28;19930;-85
2023/05/09 12:14:33;;;;;;;;;;;20.70;99.90;;;;;;5096049;28;19939;-85
2023/05/09 12:16:59;;;;;;;;;;;20.70;99.90;;;;;;5061465;28;20348;-85
2023/05/09 12:19:25;;;;;;;;;;;20.70;99.90;;;;;;5078881;28;19924;-85
2023/05/09 12:22:09;;;;;;;;;;;20.70;99.90;;;;;;5078353;28;19925;-85
2023/05/09 12:24:35;;;;;;;;;;;20.60;99.90;;;;;;5089928;28;19931;-85
2023/05/09 12:27:01;;;;;;;;;;;20.50;99.90;;;;;;5095000;28;19932;-84
2023/05/09 12:29:28;;;;;;;;;;;20.40;99.90;;;;;;5074433;28;20421;-82
2023/05/09 12:31:54;;;;;;;;;;;20.20;99.90;;;;;;5078930;28;20043;-83
2023/05/09 12:34:20;;;;;;;;;;;20.10;99.90;;;;;;5060984;28;19935;-82
2023/05/09 12:36:49;;;;;;;;;;;20.10;99.90;;;;;;5086084;28;19925;-83
2023/05/09 12:39:20;;;;;;;;;;;19.90;99.90;;;;;;5093859;28;20364;-82
2023/05/09 12:41:49;;;;;;;;;;;19.80;99.90;;;;;;5062729;28;19938;-82
2023/05/09 12:44:24;;;;;;;;;;;19.70;99.90;;;;;;5094883;28;20007;-83
2023/05/09 12:46:53;;;;;;;;;;;19.60;99.90;;;;;;5077318;28;20011;-83
2023/05/09 12:49:20;;;;;;;;;;;19.50;99.90;;;;;;5094936;28;19935;-83
2023/05/09 12:51:49;;;;;;;;;;;19.50;99.90;;;;;;5078040;28;19932;-83
2023/05/09 12:54:35;;;;;;;;;;;19.40;99.90;;;;;;5076261;28;19940;-84
2023/05/09 12:57:03;;;;;;;;;;;19.40;99.90;;;;;;5060197;28;19929;-83
2023/05/09 12:59:29;;;;;;;;;;;19.40;99.90;;;;;;5093688;28;19931;-83
2023/05/09 13:01:56;;;;;;;;;;;19.40;99.90;;;;;;5077991;28;19925;-83
2023/05/09 13:04:22;;;;;;;;;;;19.30;99.90;;;;;;5092406;28;19935;-81
2023/05/09 13:06:52;;;;;;;;;;;19.20;99.90;;;;;;5094381;28;19924;-83
2023/05/09 13:09:18;;;;;;;;;;;19.10;99.90;;;;;;5077402;28;19987;-83
2023/05/09 13:11:44;;;;;;;;;;;19.00;99.90;;;;;;5076984;28;19925;-83
2023/05/09 13:14:10;;;;;;;;;;;19.00;99.90;;;;;;5094066;28;19939;-83
2023/05/09 13:16:36;;;;;;;;;;;18.90;99.90;;;;;;5076529;28;20057;-80
2023/05/09 13:19:01;;;;;;;;;;;18.90;99.90;;;;;;5072472;28;19968;-83
2023/05/09 13:21:27;;;;;;;;;;;18.80;99.90;;;;;;5077171;28;19971;-83
2023/05/09 13:23:53;;;;;;;;;;;18.80;99.90;;;;;;5077058;28;20519;-82
2023/05/09 13:26:18;;;;;;;;;;;18.70;99.90;;;;;;5041483;28;19962;-82
2023/05/09 13:28:44;;;;;;;;;;;18.60;99.90;;;;;;5036434;28;19931;-82
2023/05/09 13:31:10;;;;;;;;;;;18.40;99.90;;;;;;5077056;28;19929;-82
2023/05/09 13:33:35;;;;;;;;;;;18.40;99.90;;;;;;5093809;28;19931;-82
2023/05/09 13:36:01;;;;;;;;;;;18.30;99.90;;;;;;5093447;28;19929;-82
2023/05/09 13:38:29;;;;;;;;;;;18.30;99.90;;;;;;5082827;28;19971;-82
2023/05/09 13:40:55;;;;;;;;;;;18.20;99.90;;;;;;5091132;28;20064;-82
2023/05/09 13:43:21;;;;;;;;;;;18.10;99.90;;;;;;5077654;28;20356;-82
2023/05/09 13:45:47;;;;;;;;;;;18.10;99.90;;;;;;5075204;28;19934;-82
2023/05/09 13:48:12;;;;;;;;;;;18.10;99.90;;;;;;5082074;28;20013;-82
2023/05/09 13:50:38;;;;;;;;;;;18.00;99.90;;;;;;5076363;28;19932;-82
2023/05/09 13:53:03;;;;;;;;;;;18.00;99.90;;;;;;5064778;28;20448;-82
2023/05/09 13:55:29;;;;;;;;;;;18.00;99.90;;;;;;5076405;28;19928;-82
2023/05/09 13:57:55;;;;;;;;;;;18.00;99.90;;;;;;5095784;28;19932;-83
2023/05/09 14:00:21;;;;;;;;;;;18.00;99.90;;;;;;5093146;28;20302;-82
2023/05/09 14:02:46;;;;;;;;;;;18.00;99.90;;;;;;5079915;28;19929;-83
2023/05/09 14:05:12;;;;;;;;;;;18.00;99.90;;;;;;5081547;28;19987;-83
2023/05/09 14:07:38;;;;;;;;;;;17.90;99.90;;;;;;5094317;28;19932;-83
2023/05/09 14:10:04;;;;;;;;;;;17.80;99.90;;;;;;5081376;28;20011;-82
2023/05/09 14:12:30;;;;;;;;;;;17.70;99.90;;;;;;5068282;28;20007;-83
2023/05/09 14:14:55;;;;;;;;;;;17.60;99.90;;;;;;5077759;28;19929;-83